Terminal Aerodrome Forecast
Issued by NWS

Home | Current Version | Previous Version | Graphics & Text | Print | Product List | Glossary On
Versions: 1 2 3 4 5 6 7 8 9 10 11 12 13 14 15 16 17 18 19
000
FTUS43 KMPX 171700 RRA
TAFRWF
TAF
KRWF 171743Z 1718/1818 16002KT P6SM VCTS SCT020CB BKN040
      TEMPO 1718/1720 5SM -TSRA BKN015CB OVC030
     FM172200 14004KT P6SM SCT020 BKN040
     FM181000 21005KT 6SM BR OVC015
      TEMPO 1810/1814 2SM +TSRA OVC020CB
     FM181400 23007KT P6SM SCT025 BKN040=

USA.gov is the U.S. government's official web portal to all federal, state and local government web resources and services.